Time;durP1;ratioP1;P1;durP2;ratioP2;P2;SDS_P1;SDS_P2;PMS_P1;PMS_P2;Temp;Humidity;BMP_temperature;BMP_pressure;BME280_temperature;BME280_humidity;BME280_pressure;Samples;Min_cycle;Max_cycle;Signal;HPM_P1;HPM_P2
2023/06/19 00:00:33;;;;;;;13.00;12.50;;;21.50;99.90;;;;;;5045335;28;20487;-67
2023/06/19 00:03:00;;;;;;;12.50;12.00;;;21.40;99.90;;;;;;5038999;28;20501;-68
2023/06/19 00:05:27;;;;;;;12.77;12.27;;;21.30;99.90;;;;;;5038990;28;20467;-66
2023/06/19 00:07:54;;;;;;;12.53;12.03;;;21.40;99.90;;;;;;5039355;28;20461;-68
2023/06/19 00:10:21;;;;;;;12.50;12.00;;;21.30;99.90;;;;;;5040600;28;20467;-67
2023/06/19 00:12:49;;;;;;;12.40;11.90;;;21.20;99.90;;;;;;5036467;28;20521;-67
2023/06/19 00:15:16;;;;;;;12.20;11.80;;;21.10;99.90;;;;;;5039750;28;20483;-68
2023/06/19 00:17:43;;;;;;;12.50;12.00;;;21.10;99.90;;;;;;5028310;28;20503;-67
2023/06/19 00:20:10;;;;;;;12.10;11.70;;;21.00;99.90;;;;;;5039473;28;20845;-66
2023/06/19 00:22:37;;;;;;;12.53;12.03;;;21.00;99.90;;;;;;5040055;28;20463;-66
2023/06/19 00:25:04;;;;;;;12.10;11.70;;;21.00;99.90;;;;;;5041415;28;20501;-67
2023/06/19 00:27:30;;;;;;;12.10;11.70;;;20.90;99.90;;;;;;5041097;28;20824;-68
2023/06/19 00:30:02;;;;;;;15.70;15.00;;;20.90;99.90;;;;;;5037291;28;20455;-67
2023/06/19 00:32:29;;;;;;;11.80;11.40;;;21.00;99.90;;;;;;5040980;28;20945;-67
2023/06/19 00:34:56;;;;;;;12.03;11.63;;;21.10;99.90;;;;;;5043370;28;20785;-67
2023/06/19 00:37:23;;;;;;;11.80;11.40;;;21.10;99.90;;;;;;5037472;28;20857;-65
2023/06/19 00:39:50;;;;;;;12.10;11.70;;;21.10;99.90;;;;;;5039207;28;20472;-66
2023/06/19 00:42:17;;;;;;;12.10;11.70;;;21.10;99.90;;;;;;5027906;28;20871;-67
2023/06/19 00:44:44;;;;;;;12.03;11.63;;;21.10;99.90;;;;;;5043660;28;20498;-67
2023/06/19 00:47:12;;;;;;;12.37;11.87;;;21.00;99.90;;;;;;5034165;28;20916;-67
2023/06/19 00:49:39;;;;;;;11.70;11.30;;;21.00;99.90;;;;;;5038640;28;20464;-67
2023/06/19 00:52:07;;;;;;;11.93;11.53;;;20.90;99.90;;;;;;5038673;28;20468;-66
2023/06/19 00:54:34;;;;;;;12.40;11.90;;;20.90;99.90;;;;;;5042083;28;20497;-67
2023/06/19 00:57:02;;;;;;;12.33;11.83;;;20.80;99.90;;;;;;5042452;28;20868;-66
2023/06/19 00:59:29;;;;;;;11.93;11.53;;;20.80;99.90;;;;;;5041506;28;20461;-67
2023/06/19 01:01:57;;;;;;;11.93;11.53;;;20.80;99.90;;;;;;5032258;28;20452;-67
2023/06/19 01:04:25;;;;;;;12.10;11.70;;;20.80;99.90;;;;;;5039833;28;20496;-66
2023/06/19 01:06:57;;;;;;;11.80;11.40;;;20.80;99.90;;;;;;5035592;28;20564;-65
2023/06/19 01:09:29;;;;;;;11.50;11.10;;;20.90;99.90;;;;;;5035516;28;20448;-67
2023/06/19 01:12:02;;;;;;;11.50;11.10;;;21.00;99.90;;;;;;5040546;28;20456;-65
2023/06/19 01:14:32;;;;;;;11.83;11.43;;;20.90;99.90;;;;;;5033389;28;20586;-67
2023/06/19 01:16:59;;;;;;;11.60;11.20;;;20.90;99.90;;;;;;5043650;28;20894;-66
2023/06/19 01:19:28;;;;;;;11.90;11.50;;;21.00;99.90;;;;;;5035512;28;20471;-67
2023/06/19 01:21:55;;;;;;;12.37;11.87;;;21.10;99.90;;;;;;5038127;28;20479;-67
2023/06/19 01:24:24;;;;;;;11.90;11.50;;;21.10;99.90;;;;;;5042595;28;20496;-66
2023/06/19 01:26:51;;;;;;;11.40;11.00;;;21.20;99.90;;;;;;5039335;28;20460;-68
2023/06/19 01:29:19;;;;;;;12.00;11.60;;;21.30;99.90;;;;;;5036271;28;20468;-65
2023/06/19 01:31:56;;;;;;;11.90;11.50;;;21.30;99.90;;;;;;5033919;28;20543;-65
2023/06/19 01:34:25;;;;;;;11.80;11.40;;;21.40;99.90;;;;;;5039577;28;20518;-67
2023/06/19 01:36:53;;;;;;;11.87;11.47;;;21.50;99.90;;;;;;5037352;28;20460;-67
2023/06/19 01:39:21;;;;;;;11.50;11.10;;;21.60;99.90;;;;;;5046249;28;20467;-66
2023/06/19 01:41:50;;;;;;;12.47;11.97;;;21.70;99.90;;;;;;5037450;28;20858;-67
2023/06/19 01:44:17;;;;;;;12.20;11.70;;;21.70;99.90;;;;;;5039975;28;20830;-67
2023/06/19 01:46:48;;;;;;;11.77;11.37;;;21.40;99.90;;;;;;5034507;28;20460;-66
2023/06/19 01:49:14;;;;;;;12.93;12.33;;;21.40;99.90;;;;;;5042647;28;20455;-65
2023/06/19 01:51:41;;;;;;;12.20;11.70;;;21.40;99.90;;;;;;5031117;28;20479;-66
2023/06/19 01:54:08;;;;;;;14.83;14.13;;;21.40;99.90;;;;;;5042656;28;20459;-67
2023/06/19 01:56:36;;;;;;;12.00;11.60;;;21.40;99.90;;;;;;5040444;28;20990;-66
2023/06/19 01:59:04;;;;;;;12.20;11.70;;;21.50;99.90;;;;;;5037417;28;20456;-67
2023/06/19 02:01:32;;;;;;;12.00;11.60;;;21.50;99.90;;;;;;5040205;28;20448;-68
2023/06/19 02:03:58;;;;;;;12.37;11.87;;;21.40;99.90;;;;;;5039824;28;20578;-67
2023/06/19 02:06:25;;;;;;;12.40;11.90;;;21.40;99.90;;;;;;5036535;28;20460;-67
2023/06/19 02:08:52;;;;;;;12.50;12.00;;;21.40;99.90;;;;;;5042939;28;20746;-67
2023/06/19 02:11:20;;;;;;;13.30;12.70;;;21.40;99.90;;;;;;5038206;28;20993;-67
2023/06/19 02:13:47;;;;;;;13.20;12.60;;;21.40;99.90;;;;;;5043241;28;20467;-67
2023/06/19 02:16:15;;;;;;;13.17;12.67;;;21.30;99.90;;;;;;5042541;28;20491;-66
2023/06/19 02:18:42;;;;;;;14.77;14.03;;;21.30;99.90;;;;;;5032163;28;20456;-68
2023/06/19 02:21:10;;;;;;;12.90;12.30;;;21.20;99.90;;;;;;5037823;28;20627;-67
2023/06/19 02:23:37;;;;;;;14.90;14.10;;;21.20;99.90;;;;;;5034426;28;20892;-68
2023/06/19 02:26:04;;;;;;;12.43;11.93;;;21.20;99.90;;;;;;5039131;28;20463;-67
2023/06/19 02:28:31;;;;;;;12.17;11.67;;;21.20;99.90;;;;;;5033041;28;20459;-66
2023/06/19 02:30:58;;;;;;;13.70;13.00;;;21.20;99.90;;;;;;5030666;28;20456;-67
2023/06/19 02:33:28;;;;;;;12.53;12.03;;;21.10;99.90;;;;;;5042067;28;20463;-68
2023/06/19 02:35:58;;;;;;;13.50;12.80;;;21.10;99.90;;;;;;5037222;28;20464;-67
2023/06/19 02:38:27;;;;;;;12.40;11.90;;;21.00;99.90;;;;;;5034302;28;20768;-67
2023/06/19 02:40:54;;;;;;;11.37;10.90;;;21.00;99.90;;;;;;5038509;28;20492;-67
2023/06/19 02:43:22;;;;;;;12.13;11.63;;;20.90;99.90;;;;;;5040703;28;20460;-67
2023/06/19 02:45:49;;;;;;;11.77;11.27;;;20.80;99.90;;;;;;5038695;28;20484;-67
2023/06/19 02:48:16;;;;;;;13.40;12.80;;;20.70;99.90;;;;;;5029890;28;20496;-67
2023/06/19 02:50:45;;;;;;;13.50;12.80;;;20.70;99.90;;;;;;5038751;28;20465;-67
2023/06/19 02:53:12;;;;;;;12.97;12.27;;;20.60;99.90;;;;;;5033822;28;20815;-67
2023/06/19 02:55:39;;;;;;;12.93;12.33;;;20.60;99.90;;;;;;5039340;28;20456;-67
2023/06/19 02:58:06;;;;;;;12.93;12.20;;;20.50;99.90;;;;;;5045689;28;20818;-67
2023/06/19 03:00:32;;;;;;;11.90;11.40;;;20.40;99.90;;;;;;5042205;28;21041;-67
2023/06/19 03:02:59;;;;;;;11.83;11.33;;;20.40;99.90;;;;;;5040561;28;20470;-67
2023/06/19 03:05:27;;;;;;;12.27;11.67;;;20.40;99.90;;;;;;5036571;28;20495;-66
2023/06/19 03:07:55;;;;;;;11.43;10.77;;;20.30;99.90;;;;;;5041906;28;20460;-67
2023/06/19 03:10:22;;;;;;;11.67;11.17;;;20.20;99.90;;;;;;5030849;28;20456;-68
2023/06/19 03:12:49;;;;;;;11.43;10.70;;;20.20;99.90;;;;;;5037342;28;20488;-67
2023/06/19 03:15:16;;;;;;;11.63;11.03;;;20.10;99.90;;;;;;5035721;28;20492;-66
2023/06/19 03:17:44;;;;;;;10.80;10.40;;;20.10;99.90;;;;;;5045913;28;20464;-67
2023/06/19 03:20:12;;;;;;;11.97;10.33;;;19.90;99.90;;;;;;5037606;28;20476;-66
2023/06/19 03:22:40;;;;;;;11.43;10.93;;;19.90;99.90;;;;;;5036477;28;20515;-67
2023/06/19 03:25:09;;;;;;;11.37;10.73;;;19.90;99.90;;;;;;5034497;28;20498;-68
2023/06/19 03:27:37;;;;;;;11.20;10.70;;;19.80;99.90;;;;;;5037426;28;20577;-67
2023/06/19 03:30:06;;;;;;;10.77;10.30;;;19.90;99.90;;;;;;5036364;28;20547;-66
2023/06/19 03:32:33;;;;;;;14.60;9.87;;;19.70;99.90;;;;;;5034177;28;20895;-67
2023/06/19 03:35:01;;;;;;;10.20;9.80;;;19.70;99.90;;;;;;5042892;28;20578;-68
2023/06/19 03:37:28;;;;;;;11.40;10.60;;;19.70;99.90;;;;;;5034955;28;20479;-68
2023/06/19 03:39:55;;;;;;;9.80;9.40;;;19.70;99.90;;;;;;5043020;28;20812;-67
2023/06/19 03:42:23;;;;;;;9.93;9.53;;;19.60;99.90;;;;;;5041741;28;21052;-67
2023/06/19 03:44:50;;;;;;;10.53;9.80;;;19.50;99.90;;;;;;5042805;28;20859;-67
2023/06/19 03:47:18;;;;;;;10.30;9.53;;;19.50;99.90;;;;;;5035234;28;20465;-66
2023/06/19 03:49:44;;;;;;;10.00;9.60;;;19.50;99.90;;;;;;5041448;28;20464;-67
2023/06/19 03:52:11;;;;;;;9.73;9.33;;;19.40;99.90;;;;;;5042095;28;20826;-66
2023/06/19 03:54:38;;;;;;;8.70;8.40;;;19.40;99.90;;;;;;5039040;28;20475;-66
2023/06/19 03:57:06;;;;;;;9.80;9.30;;;19.40;99.90;;;;;;5032596;28;20464;-67
2023/06/19 03:59:34;;;;;;;8.70;8.40;;;19.40;99.90;;;;;;5036302;28;20940;-66
2023/06/19 04:02:01;;;;;;;9.53;9.00;;;19.30;99.90;;;;;;5036724;28;20468;-66
2023/06/19 04:04:28;;;;;;;8.07;7.77;;;19.30;99.90;;;;;;5043550;28;20487;-67
2023/06/19 04:06:55;;;;;;;8.17;7.87;;;19.30;99.90;;;;;;5035546;28;20464;-67
2023/06/19 04:09:21;;;;;;;9.13;8.73;;;19.30;99.90;;;;;;5042996;28;20467;-66
2023/06/19 04:11:48;;;;;;;8.80;8.50;;;19.30;99.90;;;;;;5043046;28;20460;-67
2023/06/19 04:14:16;;;;;;;8.63;8.23;;;19.30;99.90;;;;;;5045057;28;20587;-66
2023/06/19 04:16:45;;;;;;;8.60;8.30;;;19.20;99.90;;;;;;5039958;28;20492;-67
2023/06/19 04:19:13;;;;;;;9.43;9.03;;;19.20;99.90;;;;;;5045193;28;20441;-66
2023/06/19 04:21:40;;;;;;;9.23;8.73;;;19.20;99.90;;;;;;5043516;28;20457;-67
2023/06/19 04:24:08;;;;;;;9.10;8.80;;;19.10;99.90;;;;;;5043466;28;20463;-66
2023/06/19 04:26:35;;;;;;;10.30;9.60;;;19.20;99.90;;;;;;5039555;28;20468;-66
2023/06/19 04:29:06;;;;;;;8.90;8.60;;;19.20;99.90;;;;;;5041036;28;20461;-66
2023/06/19 04:31:32;;;;;;;8.80;8.50;;;19.30;99.90;;;;;;5033326;28;20946;-66
2023/06/19 04:34:04;;;;;;;9.53;9.13;;;19.50;99.90;;;;;;5041234;28;20807;-66
2023/06/19 04:36:31;;;;;;;9.27;8.97;;;19.60;99.90;;;;;;5039682;28;20464;-66
2023/06/19 04:39:00;;;;;;;9.00;8.70;;;19.80;99.90;;;;;;5038851;28;20558;-67
2023/06/19 04:41:28;;;;;;;8.73;8.43;;;19.90;99.90;;;;;;5036738;28;20881;-66
2023/06/19 04:43:55;;;;;;;9.47;9.17;;;20.10;99.90;;;;;;5039646;28;20548;-67
2023/06/19 04:46:22;;;;;;;10.87;10.00;;;20.20;99.90;;;;;;5041175;28;20938;-66
2023/06/19 04:48:50;;;;;;;9.83;9.53;;;20.30;99.90;;;;;;5028103;28;20457;-65
2023/06/19 04:51:20;;;;;;;10.30;9.90;;;20.30;99.90;;;;;;5040994;28;20468;-67
2023/06/19 04:53:47;;;;;;;11.00;10.60;;;20.40;99.90;;;;;;5037777;28;20480;-66
2023/06/19 04:56:15;;;;;;;11.80;11.30;;;20.60;99.90;;;;;;5044592;28;20484;-67
2023/06/19 04:58:46;;;;;;;11.33;10.93;;;20.70;99.90;;;;;;5035624;28;20503;-66
2023/06/19 05:01:12;;;;;;;11.40;11.00;;;20.80;99.90;;;;;;5040938;28;20468;-67
2023/06/19 05:03:40;;;;;;;11.20;10.80;;;20.70;99.90;;;;;;5048150;28;20471;-66
2023/06/19 05:06:08;;;;;;;11.93;11.43;;;20.80;99.90;;;;;;5032717;28;20487;-66
2023/06/19 05:08:36;;;;;;;11.80;11.30;;;20.90;99.90;;;;;;5035106;28;20472;-66
2023/06/19 05:11:03;;;;;;;11.80;11.30;;;21.10;99.90;;;;;;5040822;28;20467;-67
2023/06/19 05:13:30;;;;;;;12.27;11.77;;;21.10;99.90;;;;;;5043216;28;20513;-66
2023/06/19 05:15:56;;;;;;;12.83;12.23;;;21.00;99.90;;;;;;5036606;28;20874;-66
2023/06/19 05:18:24;;;;;;;12.30;11.80;;;21.20;99.90;;;;;;5043922;28;20943;-67
2023/06/19 05:20:51;;;;;;;12.30;11.80;;;21.40;99.90;;;;;;5041698;28;20461;-67
2023/06/19 05:23:18;;;;;;;12.23;11.73;;;21.50;99.90;;;;;;5039403;28;20463;-66
2023/06/19 05:25:48;;;;;;;12.70;12.20;;;21.50;99.90;;;;;;5038858;28;21001;-67
2023/06/19 05:28:15;;;;;;;12.40;11.90;;;21.50;99.90;;;;;;5044371;28;20456;-67
2023/06/19 05:30:42;;;;;;;12.00;11.50;;;21.50;99.90;;;;;;5044010;28;20960;-67
2023/06/19 05:33:09;;;;;;;12.20;11.70;;;21.50;99.90;;;;;;5034134;28;20549;-66
2023/06/19 05:35:36;;;;;;;12.80;12.30;;;21.70;99.90;;;;;;5041164;28;20478;-66
2023/06/19 05:38:03;;;;;;;12.80;12.20;;;21.70;99.90;;;;;;5032110;28;20468;-66
2023/06/19 05:40:29;;;;;;;13.90;13.10;;;22.00;99.90;;;;;;5032524;28;20480;-66
2023/06/19 05:42:58;;;;;;;12.70;12.20;;;22.00;99.90;;;;;;5039589;28;20519;-66
2023/06/19 05:45:25;;;;;;;13.10;12.50;;;21.80;99.90;;;;;;5036050;28;20496;-67
2023/06/19 05:47:52;;;;;;;13.57;12.97;;;22.00;99.90;;;;;;5028802;28;20468;-67
2023/06/19 05:50:19;;;;;;;13.50;12.90;;;22.20;99.90;;;;;;5037173;28;20464;-65
2023/06/19 05:52:46;;;;;;;14.13;13.33;;;22.10;99.90;;;;;;5036057;28;20455;-67
2023/06/19 05:55:13;;;;;;;13.30;12.70;;;22.00;99.90;;;;;;5038826;28;20881;-66
2023/06/19 05:57:39;;;;;;;13.47;12.87;;;22.10;99.90;;;;;;5040385;28;20575;-65
2023/06/19 06:00:11;;;;;;;13.00;12.50;;;22.10;99.90;;;;;;5043585;28;20456;-65
2023/06/19 06:02:39;;;;;;;13.50;12.90;;;22.20;99.90;;;;;;5031865;28;20487;-65
2023/06/19 06:05:08;;;;;;;14.40;13.60;;;22.10;99.90;;;;;;5042977;28;20511;-66
2023/06/19 06:07:35;;;;;;;13.10;12.60;;;22.20;99.90;;;;;;5032222;28;20560;-66
2023/06/19 06:10:02;;;;;;;13.60;13.00;;;22.00;99.90;;;;;;5043759;28;20474;-65
2023/06/19 06:12:29;;;;;;;13.50;13.00;;;21.90;99.90;;;;;;5034828;28;20460;-66
2023/06/19 06:14:56;;;;;;;13.47;12.87;;;22.10;99.90;;;;;;5039894;28;20471;-67
2023/06/19 06:17:24;;;;;;;12.90;12.40;;;22.20;99.90;;;;;;5034665;28;20475;-66
2023/06/19 06:19:51;;;;;;;12.90;12.40;;;22.40;99.90;;;;;;5039164;28;20979;-66
2023/06/19 06:22:18;;;;;;;13.00;12.50;;;22.00;99.90;;;;;;5030851;28;20470;-66
2023/06/19 06:24:46;;;;;;;13.43;12.83;;;22.10;99.90;;;;;;5038154;28;20818;-65
2023/06/19 06:27:14;;;;;;;14.57;13.77;;;22.00;99.90;;;;;;5036305;28;20560;-66
2023/06/19 06:29:40;;;;;;;13.80;13.20;;;22.40;99.90;;;;;;5031422;28;20892;-66
2023/06/19 06:32:09;;;;;;;14.13;13.33;;;22.60;99.90;;;;;;5031882;28;20467;-66
2023/06/19 06:34:37;;;;;;;14.17;13.37;;;22.70;99.90;;;;;;5039050;28;20463;-65
2023/06/19 06:37:04;;;;;;;13.60;13.00;;;22.70;99.90;;;;;;5036014;28;20958;-67
2023/06/19 06:39:31;;;;;;;13.67;13.07;;;22.80;99.90;;;;;;5039196;28;20656;-66
2023/06/19 06:41:58;;;;;;;14.20;13.60;;;22.80;99.90;;;;;;5032590;28;20479;-66
2023/06/19 06:44:26;;;;;;;12.50;12.00;;;23.00;99.90;;;;;;5035690;28;20478;-66
2023/06/19 06:46:52;;;;;;;13.00;12.37;;;22.10;99.90;;;;;;5043349;28;20906;-67
2023/06/19 06:49:20;;;;;;;16.53;15.53;;;21.70;99.90;;;;;;5025465;28;20449;-65
2023/06/19 06:51:48;;;;;;;16.10;15.20;;;21.20;99.90;;;;;;5030087;28;20495;-66
2023/06/19 06:54:15;;;;;;;20.47;19.17;;;20.60;99.90;;;;;;5034505;28;20463;-65
2023/06/19 06:56:42;;;;;;;21.40;19.90;;;20.40;99.90;;;;;;5026151;28;20995;-66
2023/06/19 06:59:09;;;;;;;19.73;18.43;;;20.00;99.90;;;;;;5039919;28;20460;-66
2023/06/19 07:01:36;;;;;;;20.83;19.50;;;19.80;99.90;;;;;;5036527;28;21024;-67
2023/06/19 07:04:02;;;;;;;18.80;17.80;;;19.80;99.90;;;;;;5041457;28;20459;-66
2023/06/19 07:06:29;;;;;;;18.00;17.00;;;19.80;99.90;;;;;;5036413;28;20489;-67
2023/06/19 07:08:57;;;;;;;17.30;16.40;;;19.70;99.90;;;;;;5040424;28;20475;-67
2023/06/19 07:11:24;;;;;;;15.87;15.07;;;19.70;99.90;;;;;;5045001;28;20946;-67
2023/06/19 07:13:51;;;;;;;15.10;14.40;;;19.90;99.90;;;;;;5039721;28;20845;-67
2023/06/19 07:16:18;;;;;;;12.70;11.73;;;20.00;99.90;;;;;;5038356;28;20496;-67
2023/06/19 07:18:44;;;;;;;9.40;9.00;;;20.10;99.90;;;;;;5041563;28;20883;-68
2023/06/19 07:21:13;;;;;;;7.50;7.20;;;20.30;99.90;;;;;;5035518;28;20475;-68
2023/06/19 07:23:40;;;;;;;6.53;6.33;;;20.50;99.90;;;;;;5038777;28;20491;-67
2023/06/19 07:26:09;;;;;;;6.20;6.00;;;20.70;99.90;;;;;;5044010;28;20482;-67
2023/06/19 07:28:37;;;;;;;7.27;6.97;;;21.00;99.90;;;;;;5040123;28;20539;-67
2023/06/19 07:31:03;;;;;;;7.43;7.13;;;21.10;99.90;;;;;;5045667;28;20455;-67
2023/06/19 07:33:30;;;;;;;6.80;6.60;;;21.10;99.90;;;;;;5045774;28;20471;-67
2023/06/19 07:35:58;;;;;;;8.67;8.30;;;21.60;99.90;;;;;;5040394;28;20467;-67
2023/06/19 07:38:25;;;;;;;9.37;9.07;;;21.80;99.90;;;;;;5040105;28;20459;-68
2023/06/19 07:40:52;;;;;;;11.17;10.67;;;22.20;99.90;;;;;;5048403;28;20483;-67
2023/06/19 07:43:22;;;;;;;12.27;11.77;;;22.60;99.90;;;;;;5036221;28;20468;-68
2023/06/19 07:45:50;;;;;;;14.43;13.63;;;23.00;99.90;;;;;;5037727;28;20487;-68
2023/06/19 07:48:17;;;;;;;13.73;13.07;;;23.30;99.90;;;;;;5042084;28;20456;-66
2023/06/19 07:50:44;;;;;;;13.50;13.00;;;23.10;99.90;;;;;;5035830;28;20549;-68
2023/06/19 07:53:11;;;;;;;14.70;13.90;;;23.10;99.90;;;;;;5044142;28;20831;-67
2023/06/19 07:55:38;;;;;;;14.40;13.70;;;23.20;99.90;;;;;;5041548;28;20464;-67
2023/06/19 07:58:04;;;;;;;14.17;13.57;;;23.50;99.90;;;;;;5036239;28;20794;-68
2023/06/19 08:00:33;;;;;;;13.80;13.20;;;23.80;99.90;;;;;;5039208;28;20521;-67
2023/06/19 08:02:59;;;;;;;14.40;13.80;;;24.10;99.90;;;;;;5038084;28;20514;-69
2023/06/19 08:05:26;;;;;;;15.10;14.40;;;24.50;99.90;;;;;;5037890;28;20472;-68
2023/06/19 08:07:53;;;;;;;15.53;14.73;;;24.20;99.90;;;;;;5037439;28;20529;-68
2023/06/19 08:10:20;;;;;;;14.47;13.87;;;24.40;99.90;;;;;;5040289;28;20943;-68
2023/06/19 08:12:47;;;;;;;13.90;13.30;;;24.30;99.90;;;;;;5040119;28;20459;-67
2023/06/19 08:15:14;;;;;;;14.23;13.63;;;24.40;99.90;;;;;;5032217;28;20884;-66
2023/06/19 08:17:42;;;;;;;13.90;13.30;;;24.40;99.90;;;;;;5035474;28;20464;-69
2023/06/19 08:20:10;;;;;;;13.90;13.30;;;24.50;99.90;;;;;;5037894;28;20455;-67
2023/06/19 08:22:37;;;;;;;14.07;13.47;;;24.70;99.90;;;;;;5036225;28;20470;-67
2023/06/19 08:25:05;;;;;;;15.43;14.63;;;24.80;99.90;;;;;;5035826;28;20455;-67
2023/06/19 08:27:32;;;;;;;15.63;14.83;;;25.00;99.90;;;;;;5038416;28;20493;-68
2023/06/19 08:29:59;;;;;;;15.40;14.70;;;25.60;99.90;;;;;;5035698;28;20821;-68
2023/06/19 08:32:27;;;;;;;17.43;15.80;;;25.80;99.90;;;;;;5040382;28;20471;-67
2023/06/19 08:34:55;;;;;;;16.57;15.33;;;25.70;99.90;;;;;;5038714;28;20983;-67
2023/06/19 08:37:22;;;;;;;15.33;14.63;;;25.50;99.90;;;;;;5037439;28;20469;-66
2023/06/19 08:39:49;;;;;;;14.77;14.13;;;25.40;99.90;;;;;;5034368;28;20472;-66
2023/06/19 08:42:16;;;;;;;15.70;15.00;;;25.10;99.90;;;;;;5034208;28;20508;-68
2023/06/19 08:44:43;;;;;;;17.13;15.73;;;25.10;99.90;;;;;;5033272;28;20817;-66
2023/06/19 08:47:10;;;;;;;15.60;14.80;;;25.40;99.90;;;;;;5034678;28;20571;-67
2023/06/19 08:49:37;;;;;;;15.23;14.43;;;25.20;99.90;;;;;;5039312;28;20448;-66
2023/06/19 08:52:07;;;;;;;17.57;16.40;;;25.20;99.90;;;;;;5036179;28;20518;-68
2023/06/19 08:54:43;;;;;;;14.73;14.13;;;25.10;99.90;;;;;;5036494;28;20543;-66
2023/06/19 08:57:11;;;;;;;16.80;15.70;;;25.20;99.90;;;;;;5037659;28;20907;-68
2023/06/19 08:59:39;;;;;;;16.47;15.43;;;26.10;99.90;;;;;;5041245;28;20867;-68
2023/06/19 09:02:07;;;;;;;17.50;16.40;;;26.80;99.90;;;;;;5037693;28;20487;-67
2023/06/19 09:04:34;;;;;;;16.40;15.60;;;27.10;99.90;;;;;;5035918;28;20468;-67
2023/06/19 09:07:03;;;;;;;15.53;14.83;;;26.90;99.90;;;;;;5033336;28;20484;-67
2023/06/19 09:09:32;;;;;;;16.03;15.13;;;27.20;99.90;;;;;;5037273;28;20552;-67
2023/06/19 09:12:00;;;;;;;15.03;14.43;;;27.20;99.90;;;;;;5046810;28;20874;-68
2023/06/19 09:14:35;;;;;;;16.73;15.90;;;26.70;99.90;;;;;;5036160;28;20509;-68
2023/06/19 09:17:03;;;;;;;16.77;15.87;;;26.70;99.90;;;;;;5034486;28;20505;-68
2023/06/19 09:19:30;;;;;;;16.07;14.90;;;26.10;99.90;;;;;;5041438;28;20467;-69
2023/06/19 09:22:01;;;;;;;15.60;14.90;;;26.20;99.90;;;;;;5035754;28;20468;-68
2023/06/19 09:24:37;;;;;;;15.80;15.10;;;26.40;99.90;;;;;;5040513;28;20464;-69
2023/06/19 09:27:08;;;;;;;16.60;15.70;;;26.80;99.90;;;;;;5037257;28;20488;-68
2023/06/19 09:29:39;;;;;;;15.63;14.93;;;27.00;99.90;;;;;;5032305;28;20808;-68
2023/06/19 09:32:16;;;;;;;17.57;16.37;;;27.10;99.90;;;;;;5038870;28;20555;-68
2023/06/19 09:34:43;;;;;;;17.20;16.10;;;27.40;99.90;;;;;;5034785;28;20546;-68
2023/06/19 09:37:10;;;;;;;17.77;16.33;;;27.30;99.90;;;;;;5034397;28;20464;-68
2023/06/19 09:39:40;;;;;;;17.13;16.33;;;27.70;99.90;;;;;;5039530;28;20483;-68
2023/06/19 09:42:08;;;;;;;17.90;16.83;;;27.50;99.90;;;;;;5036722;28;20476;-67
2023/06/19 09:44:40;;;;;;;16.37;15.67;;;27.90;99.90;;;;;;5042474;28;20465;-68
2023/06/19 09:47:18;;;;;;;16.00;15.30;;;28.60;99.90;;;;;;5036448;28;20499;-68
2023/06/19 09:49:51;;;;;;;16.90;16.00;;;28.10;99.90;;;;;;5041826;28;20460;-67
2023/06/19 09:52:19;;;;;;;16.60;15.90;;;28.30;99.90;;;;;;5037784;28;20555;-67
2023/06/19 09:54:47;;;;;;;16.60;15.90;;;28.60;99.90;;;;;;5033028;28;20461;-68
2023/06/19 09:57:14;;;;;;;16.93;16.13;;;28.50;99.90;;;;;;5031347;28;20552;-68
2023/06/19 09:59:41;;;;;;;18.50;17.40;;;29.10;99.90;;;;;;5033085;28;20526;-66
2023/06/19 10:02:10;;;;;;;17.60;16.80;;;29.10;99.90;;;;;;5041209;28;20469;-67
2023/06/19 10:04:46;;;;;;;17.40;16.60;;;29.30;99.90;;;;;;5042043;28;20841;-69
2023/06/19 10:07:18;;;;;;;17.20;16.37;;;29.20;99.90;;;;;;5035326;28;20937;-67
2023/06/19 10:10:05;;;;;;;17.93;16.93;;;29.10;99.90;;;;;;5033667;28;20518;-68
2023/06/19 10:12:40;;;;;;;16.03;15.33;;;28.70;99.90;;;;;;5042193;28;20507;-68
2023/06/19 10:15:13;;;;;;;18.47;17.17;;;29.20;99.90;;;;;;5030970;28;20487;-69
2023/06/19 10:17:44;;;;;;;18.37;17.37;;;29.50;99.90;;;;;;5043814;28;20460;-67
2023/06/19 10:20:22;;;;;;;16.53;15.83;;;29.30;99.90;;;;;;5039833;28;20554;-67
2023/06/19 10:22:53;;;;;;;18.13;17.00;;;29.20;99.90;;;;;;5042053;28;20456;-68
2023/06/19 10:25:25;;;;;;;17.50;16.60;;;30.00;99.80;;;;;;5036479;28;20451;-68
2023/06/19 10:27:52;;;;;;;16.50;15.60;;;29.70;99.20;;;;;;5039240;28;20934;-68
2023/06/19 10:30:20;;;;;;;17.50;16.60;;;30.40;98.70;;;;;;5036521;28;20547;-68
2023/06/19 10:32:48;;;;;;;16.63;15.83;;;30.10;97.50;;;;;;5035492;28;20452;-68
2023/06/19 10:35:16;;;;;;;16.20;15.50;;;30.20;97.90;;;;;;5036055;28;20469;-68
2023/06/19 10:37:44;;;;;;;17.27;16.47;;;30.50;98.90;;;;;;5040224;28;20458;-67
2023/06/19 10:40:12;;;;;;;17.37;16.57;;;30.50;98.10;;;;;;5037330;28;20499;-68
2023/06/19 10:42:41;;;;;;;16.77;15.97;;;29.50;98.60;;;;;;5035412;28;20472;-68
2023/06/19 10:45:10;;;;;;;18.23;17.07;;;30.10;98.00;;;;;;5039472;28;20832;-68
2023/06/19 10:47:38;;;;;;;17.40;16.40;;;30.00;96.60;;;;;;5043359;28;20491;-68
2023/06/19 10:50:06;;;;;;;17.07;16.27;;;30.20;95.70;;;;;;5034565;28;20452;-68
2023/06/19 10:52:34;;;;;;;16.90;16.10;;;30.40;96.50;;;;;;5042287;28;20513;-68
2023/06/19 10:55:00;;;;;;;16.93;16.03;;;30.50;96.10;;;;;;5038220;28;20978;-68
2023/06/19 10:57:29;;;;;;;15.63;14.97;;;30.60;96.20;;;;;;5040630;28;20507;-68
2023/06/19 10:59:58;;;;;;;18.93;17.07;;;30.60;96.00;;;;;;5036407;28;20465;-69
2023/06/19 11:02:25;;;;;;;15.70;15.07;;;30.90;95.20;;;;;;5038429;28;20946;-68
2023/06/19 11:04:55;;;;;;;16.87;16.07;;;29.60;96.50;;;;;;5037423;28;20525;-68
2023/06/19 11:07:23;;;;;;;15.90;15.20;;;29.90;95.80;;;;;;5039960;28;20475;-69
2023/06/19 11:09:50;;;;;;;16.33;15.60;;;30.30;95.00;;;;;;5030329;28;20461;-69
2023/06/19 11:12:20;;;;;;;16.27;15.40;;;30.30;94.90;;;;;;5040992;28;20474;-68
2023/06/19 11:14:49;;;;;;;15.80;15.10;;;30.60;95.10;;;;;;5040570;28;20469;-68
2023/06/19 11:17:21;;;;;;;16.50;15.60;;;30.30;94.40;;;;;;5041348;28;20456;-68
2023/06/19 11:19:48;;;;;;;16.30;15.50;;;31.40;94.40;;;;;;5041282;28;20475;-68
2023/06/19 11:22:15;;;;;;;16.13;15.43;;;31.20;92.40;;;;;;5031466;28;20502;-68
2023/06/19 11:24:45;;;;;;;16.80;15.97;;;32.30;91.30;;;;;;5043439;28;20866;-67
2023/06/19 11:27:24;;;;;;;17.57;16.60;;;33.10;88.10;;;;;;5036335;28;20499;-68
2023/06/19 11:29:56;;;;;;;17.90;16.83;;;33.50;85.20;;;;;;5035151;28;20467;-68
2023/06/19 11:32:24;;;;;;;16.03;15.23;;;32.50;81.60;;;;;;5023019;28;20507;-67
2023/06/19 11:34:54;;;;;;;16.00;15.20;;;32.80;85.00;;;;;;5028399;28;21081;-67
2023/06/19 11:37:22;;;;;;;15.37;14.77;;;33.20;84.40;;;;;;5031973;28;20781;-67
2023/06/19 11:39:50;;;;;;;15.60;15.00;;;34.20;79.10;;;;;;5034783;28;20547;-68
2023/06/19 11:45:06;;;;;;;15.20;14.60;;;33.70;75.00;;;;;;5037198;28;20548;-67
2023/06/19 11:47:34;;;;;;;15.97;15.27;;;33.80;74.50;;;;;;5035474;28;21032;-67
2023/06/19 11:50:01;;;;;;;16.83;16.03;;;34.30;72.10;;;;;;5038142;28;21096;-68
2023/06/19 11:52:28;;;;;;;19.23;17.63;;;33.80;70.80;;;;;;5041308;28;20463;-69
2023/06/19 11:54:55;;;;;;;16.43;15.40;;;33.30;72.70;;;;;;5041889;28;20468;-69
2023/06/19 11:57:22;;;;;;;15.60;15.00;;;32.90;74.80;;;;;;5039784;28;20460;-68
2023/06/19 11:59:49;;;;;;;15.43;14.73;;;32.50;76.20;;;;;;5032292;28;20604;-68
2023/06/19 12:02:16;;;;;;;14.57;13.97;;;32.60;74.30;;;;;;5035759;28;20483;-70
2023/06/19 12:04:44;;;;;;;15.50;14.70;;;32.20;74.30;;;;;;5038837;28;20989;-69
2023/06/19 12:07:11;;;;;;;15.00;14.40;;;32.80;73.30;;;;;;5036161;28;20491;-68
2023/06/19 12:09:38;;;;;;;15.53;14.90;;;32.80;77.00;;;;;;5031485;28;20534;-68
2023/06/19 12:12:06;;;;;;;15.00;14.40;;;33.00;75.90;;;;;;5036746;28;20459;-67
2023/06/19 12:14:34;;;;;;;15.53;14.93;;;32.50;74.20;;;;;;5036348;28;20967;-67
2023/06/19 12:17:00;;;;;;;16.00;15.30;;;32.10;74.30;;;;;;5036550;28;20491;-67
2023/06/19 12:19:28;;;;;;;15.17;14.57;;;31.50;76.50;;;;;;5039449;28;21040;-67
2023/06/19 12:21:56;;;;;;;16.00;15.30;;;31.70;78.10;;;;;;5035920;28;20464;-68
2023/06/19 12:24:23;;;;;;;15.57;14.90;;;32.00;77.30;;;;;;5038900;28;20500;-67
2023/06/19 12:26:50;;;;;;;15.83;15.13;;;32.00;76.70;;;;;;5042021;28;20546;-67
2023/06/19 12:29:17;;;;;;;15.23;14.63;;;31.70;76.20;;;;;;5035845;28;20472;-67
2023/06/19 12:31:44;;;;;;;16.70;15.80;;;31.50;75.40;;;;;;5038905;28;20460;-68
2023/06/19 12:34:12;;;;;;;15.73;15.00;;;31.50;77.80;;;;;;5042680;28;20468;-68